KLM843 YSSY-WSSS
Flight info
| Callsign | KLM843 |
|---|---|
| Flight time | N/A |
| Altitude | 30000 |
| Route | KADOM A576 PKS G222 SAPDA A585 PLB G579 SJ |
| Aircraft | B742/H-SDFHIRWXY/L |
Departure
| Time | 2026-05-08 04:15 |
|---|---|
| Airport | Sydney Kingsford Smith International Airport (YSSY) |
Arrival
| Time | N/A |
|---|---|
| Airport | Singapore Changi Airport (WSSS) |
| Time | Latitude | Longitude | Altitude | Speed | Heading |
|---|---|---|---|---|---|
| 2026-05-08 03:10 | -33.94015 | 151.16614 | 25 ft | 0 kts | 344° |
| 2026-05-08 04:02 | -33.94016 | 151.16614 | 25 ft | 1 kts | 345° |
| 2026-05-08 04:02 | -33.94030 | 151.16618 | 25 ft | 2 kts | 344° |
| 2026-05-08 04:02 | -33.94044 | 151.16623 | 24 ft | 2 kts | 345° |
| 2026-05-08 04:02 | -33.94059 | 151.16629 | 24 ft | 2 kts | 345° |
| 2026-05-08 04:03 | -33.94073 | 151.16634 | 24 ft | 2 kts | 344° |
| 2026-05-08 04:03 | -33.94102 | 151.16643 | 24 ft | 2 kts | 345° |
| 2026-05-08 04:03 | -33.94113 | 151.16646 | 24 ft | 0 kts | 345° |
| 2026-05-08 04:08 | -33.94100 | 151.16650 | 24 ft | 3 kts | 51° |
| 2026-05-08 04:08 | -33.94087 | 151.16730 | 24 ft | 16 kts | 79° |
| 2026-05-08 04:08 | -33.94047 | 151.16916 | 25 ft | 26 kts | 73° |
| 2026-05-08 04:09 | -33.93994 | 151.17128 | 24 ft | 25 kts | 73° |
| 2026-05-08 04:09 | -33.93870 | 151.17203 | 19 ft | 22 kts | 346° |
| 2026-05-08 04:09 | -33.93727 | 151.17163 | 20 ft | 19 kts | 347° |
| 2026-05-08 04:09 | -33.93609 | 151.17129 | 22 ft | 15 kts | 348° |
| 2026-05-08 04:10 | -33.93514 | 151.17105 | 24 ft | 13 kts | 348° |
| 2026-05-08 04:10 | -33.93412 | 151.17079 | 25 ft | 16 kts | 347° |
| 2026-05-08 04:10 | -33.93304 | 151.17024 | 26 ft | 18 kts | 318° |
| 2026-05-08 04:10 | -33.93193 | 151.16943 | 26 ft | 20 kts | 351° |
| 2026-05-08 04:11 | -33.93059 | 151.16911 | 26 ft | 14 kts | 350° |
| 2026-05-08 04:11 | -33.92987 | 151.16951 | 26 ft | 10 kts | 64° |
| 2026-05-08 04:11 | -33.92975 | 151.17001 | 26 ft | 0 kts | 77° |
| 2026-05-08 04:12 | -33.92975 | 151.17003 | 26 ft | 1 kts | 77° |
| 2026-05-08 04:12 | -33.92966 | 151.17046 | 25 ft | 9 kts | 77° |
| 2026-05-08 04:13 | -33.92949 | 151.17136 | 24 ft | 3 kts | 96° |
| 2026-05-08 04:13 | -33.92963 | 151.17160 | 25 ft | 4 kts | 142° |
| 2026-05-08 04:13 | -33.93003 | 151.17175 | 26 ft | 7 kts | 168° |
| 2026-05-08 04:13 | -33.93026 | 151.17181 | 26 ft | 0 kts | 168° |
| 2026-05-08 04:14 | -33.93090 | 151.17198 | 26 ft | 21 kts | 168° |
| 2026-05-08 04:14 | -33.93371 | 151.17268 | 20 ft | 65 kts | 167° |
| 2026-05-08 04:14 | -33.93982 | 151.17429 | 15 ft | 114 kts | 168° |
| 2026-05-08 04:14 | -33.94916 | 151.17671 | 22 ft | 157 kts | 168° |
| 2026-05-08 04:15 | -33.96108 | 151.17990 | 92 ft | 186 kts | 170° |
| 2026-05-08 04:15 | -33.97362 | 151.18378 | 517 ft | 185 kts | 172° |
| 2026-05-08 04:15 | -33.98627 | 151.18749 | 897 ft | 190 kts | 176° |
| 2026-05-08 04:15 | -33.99945 | 151.18715 | 1219 ft | 190 kts | 200° |
| 2026-05-08 04:16 | -34.01136 | 151.18172 | 1832 ft | 178 kts | 218° |
| 2026-05-08 04:16 | -34.01898 | 151.17017 | 2115 ft | 176 kts | 248° |
| 2026-05-08 04:16 | -34.02115 | 151.15573 | 2287 ft | 178 kts | 267° |
| 2026-05-08 04:16 | -34.01900 | 151.14073 | 2315 ft | 190 kts | 288° |
| 2026-05-08 04:17 | -34.01395 | 151.12573 | 2427 ft | 195 kts | 286° |
| 2026-05-08 04:17 | -34.00870 | 151.11011 | 2425 ft | 208 kts | 287° |
| 2026-05-08 04:17 | -34.00287 | 151.09346 | 2524 ft | 217 kts | 288° |
| 2026-05-08 04:17 | -33.99681 | 151.07657 | 2694 ft | 223 kts | 288° |
| 2026-05-08 04:18 | -33.99044 | 151.05893 | 2791 ft | 233 kts | 289° |
| 2026-05-08 04:18 | -33.98379 | 151.04060 | 2895 ft | 244 kts | 289° |
| 2026-05-08 04:18 | -33.97685 | 151.02153 | 3151 ft | 250 kts | 289° |
| 2026-05-08 04:18 | -33.96989 | 151.00243 | 3556 ft | 251 kts | 289° |
| 2026-05-08 04:19 | -33.96278 | 150.98294 | 3909 ft | 254 kts | 289° |
| 2026-05-08 04:19 | -33.95567 | 150.96341 | 4257 ft | 257 kts | 289° |
| 2026-05-08 04:19 | -33.94840 | 150.94351 | 4621 ft | 260 kts | 289° |
| 2026-05-08 04:19 | -33.94104 | 150.92335 | 5003 ft | 262 kts | 289° |
| 2026-05-08 04:20 | -33.93370 | 150.90328 | 5343 ft | 265 kts | 289° |
| 2026-05-08 04:20 | -33.92613 | 150.88255 | 5712 ft | 268 kts | 289° |
| 2026-05-08 04:20 | -33.91859 | 150.86195 | 6078 ft | 270 kts | 289° |
| 2026-05-08 04:20 | -33.91098 | 150.84119 | 6410 ft | 273 kts | 288° |
| 2026-05-08 04:21 | -33.90331 | 150.82028 | 6831 ft | 273 kts | 288° |
| 2026-05-08 04:21 | -33.89554 | 150.79904 | 7221 ft | 274 kts | 288° |
| 2026-05-08 04:21 | -33.88788 | 150.77815 | 7559 ft | 275 kts | 288° |
| 2026-05-08 04:21 | -33.88014 | 150.75708 | 7953 ft | 275 kts | 288° |
| 2026-05-08 04:22 | -33.87232 | 150.73578 | 8294 ft | 277 kts | 288° |
| 2026-05-08 04:22 | -33.86445 | 150.71437 | 8652 ft | 278 kts | 287° |
| 2026-05-08 04:22 | -33.85656 | 150.69293 | 8987 ft | 280 kts | 287° |
| 2026-05-08 04:22 | -33.84870 | 150.67154 | 9365 ft | 280 kts | 287° |
| 2026-05-08 04:23 | -33.84081 | 150.65010 | 9689 ft | 281 kts | 287° |
| 2026-05-08 04:23 | -33.83275 | 150.62822 | 10004 ft | 283 kts | 287° |
| 2026-05-08 04:23 | -33.82478 | 150.60660 | 10347 ft | 284 kts | 287° |
| 2026-05-08 04:23 | -33.81671 | 150.58464 | 10468 ft | 293 kts | 287° |
| 2026-05-08 04:24 | -33.80825 | 150.56169 | 10587 ft | 303 kts | 287° |
| 2026-05-08 04:24 | -33.79945 | 150.53784 | 10711 ft | 314 kts | 288° |
| 2026-05-08 04:24 | -33.79036 | 150.51325 | 10845 ft | 325 kts | 288° |
| 2026-05-08 04:24 | -33.78102 | 150.48799 | 10974 ft | 337 kts | 288° |
| 2026-05-08 04:25 | -33.77128 | 150.46164 | 11111 ft | 349 kts | 288° |
| 2026-05-08 04:25 | -33.76124 | 150.43453 | 11240 ft | 361 kts | 288° |
| 2026-05-08 04:25 | -33.75077 | 150.40625 | 11375 ft | 374 kts | 288° |
| 2026-05-08 04:25 | -33.74009 | 150.37747 | 11608 ft | 383 kts | 288° |
| 2026-05-08 04:26 | -33.72919 | 150.34816 | 12200 ft | 382 kts | 289° |
| 2026-05-08 04:26 | -33.71809 | 150.31877 | 12767 ft | 383 kts | 289° |
| 2026-05-08 04:26 | -33.70765 | 150.28967 | 13176 ft | 384 kts | 285° |
| 2026-05-08 04:26 | -33.69888 | 150.25911 | 13578 ft | 386 kts | 283° |
| 2026-05-08 04:27 | -33.69073 | 150.22830 | 14058 ft | 387 kts | 282° |
| 2026-05-08 04:27 | -33.68260 | 150.19740 | 14487 ft | 390 kts | 283° |
| 2026-05-08 04:27 | -33.67422 | 150.16595 | 14935 ft | 391 kts | 283° |
| 2026-05-08 04:27 | -33.66587 | 150.13498 | 15317 ft | 395 kts | 283° |
| 2026-05-08 04:28 | -33.65732 | 150.10345 | 15791 ft | 395 kts | 283° |
| 2026-05-08 04:28 | -33.64871 | 150.07182 | 16172 ft | 398 kts | 283° |
| 2026-05-08 04:28 | -33.64004 | 150.04002 | 16553 ft | 400 kts | 283° |
| 2026-05-08 04:28 | -33.63137 | 150.00830 | 16918 ft | 403 kts | 283° |
| 2026-05-08 04:29 | -33.62255 | 149.97601 | 17295 ft | 405 kts | 283° |
| 2026-05-08 04:29 | -33.61366 | 149.94354 | 17706 ft | 407 kts | 283° |
| 2026-05-08 04:29 | -33.60475 | 149.91107 | 18114 ft | 408 kts | 283° |
| 2026-05-08 04:29 | -33.59591 | 149.87878 | 18468 ft | 410 kts | 283° |
| 2026-05-08 04:30 | -33.58687 | 149.84589 | 18933 ft | 410 kts | 283° |
| 2026-05-08 04:30 | -33.57793 | 149.81335 | 19262 ft | 413 kts | 283° |
| 2026-05-08 04:30 | -33.56887 | 149.78043 | 19652 ft | 414 kts | 284° |
| 2026-05-08 04:30 | -33.55986 | 149.74770 | 19992 ft | 417 kts | 284° |
| 2026-05-08 04:31 | -33.55069 | 149.71445 | 20393 ft | 418 kts | 283° |
| 2026-05-08 04:31 | -33.54155 | 149.68133 | 20732 ft | 420 kts | 284° |
| 2026-05-08 04:31 | -33.53233 | 149.64796 | 21067 ft | 422 kts | 284° |
| 2026-05-08 04:31 | -33.52306 | 149.61452 | 21475 ft | 422 kts | 284° |
| 2026-05-08 04:32 | -33.51375 | 149.58086 | 21780 ft | 425 kts | 284° |
| 2026-05-08 04:32 | -33.50438 | 149.54706 | 22122 ft | 426 kts | 284° |
| 2026-05-08 04:32 | -33.49503 | 149.51341 | 22476 ft | 427 kts | 284° |
| 2026-05-08 04:32 | -33.48555 | 149.47928 | 22745 ft | 430 kts | 284° |
| 2026-05-08 04:33 | -33.47604 | 149.44505 | 23064 ft | 431 kts | 284° |
| 2026-05-08 04:33 | -33.46657 | 149.41107 | 23302 ft | 434 kts | 284° |
| 2026-05-08 04:33 | -33.45692 | 149.37651 | 23646 ft | 434 kts | 284° |
| 2026-05-08 04:33 | -33.44735 | 149.34224 | 23915 ft | 436 kts | 285° |
| 2026-05-08 04:34 | -33.43745 | 149.30749 | 24201 ft | 438 kts | 285° |
| 2026-05-08 04:34 | -33.42747 | 149.27266 | 24450 ft | 440 kts | 285° |
| 2026-05-08 04:34 | -33.41752 | 149.23784 | 24738 ft | 442 kts | 285° |
| 2026-05-08 04:34 | -33.40767 | 149.20311 | 24967 ft | 444 kts | 285° |
| 2026-05-08 04:35 | -33.39764 | 149.16765 | 25150 ft | 447 kts | 285° |
| 2026-05-08 04:35 | -33.38771 | 149.13249 | 25451 ft | 448 kts | 285° |
| 2026-05-08 04:35 | -33.37773 | 149.09714 | 25719 ft | 449 kts | 285° |
| 2026-05-08 04:35 | -33.36765 | 149.06143 | 25893 ft | 451 kts | 285° |